Dueber, Ohio
Current Conditions -  °F | °C
As of 3:51 PM on Wednesday 26 Nov 2014 (Local Time) from KCAK Reporting Station
Overcast Overcast  
Wind Chill: 32°   Ceiling: 3200
Heat Index: 37°   Visibility: 7mi
Dew Point: 26°   Wind: 7mph
Humidity: 65%   Direction: 350°N
Pressure: 30"   Gusts: NA
Location:  40.7516°N, 81.4187°W
Report Text: KCAK 262051Z 35006KT 7SM BKN032 OVC220 03/M03 A3000 RMK AO2 SLP171 T00281033 56013
Loading
Personal Weather Stations






























Interactive Weather Map New forecast layout! Learn more

10-Day Weather Forecast

Advertisements
Track Severe Weather on mobile